Terminal Aerodrome Forecast
Issued by NWS Cleveland, OH

Home | Current Version | Previous Version | Graphics & Text | Print | Product List | Glossary On
Versions: 1 2 3 4 5 6 7 8 9 10 11 12 13 14 15 16 17
000
FTUS41 KCLE 181000 AAA
TAFCAK
TAF AMD
KCAK 181055Z 1811/1906 25020G30KT P6SM SCT025
      TEMPO 1811/1813 3SM BLSN BKN025
     FM181400 24017G25KT P6SM BKN025
     FM181900 25017G25KT P6SM BKN035
     FM190200 24013KT P6SM BKN035=

USA.gov is the U.S. government's official web portal to all federal, state and local government web resources and services.